Lewistown, Montana
Current Conditions -  °F | °C
As of 1:54 AM on Thursday 23 Oct 2014 (Local Time) from KLWT Reporting Station
Clear Clear  
Wind Chill: 53°   Ceiling: Unl
Heat Index: 53°   Visibility: 10mi
Dew Point: 28°   Wind: 16mph
Humidity: 38%   Direction: 230°SW
Pressure: 29.88"   Gusts: NA
Location:  47.07°N, 109.42°W
Report Text: KLWT 230754Z AUTO 23014KT 10SM CLR 12/M02 A2988 RMK AO2 SLP099 T01171022
Loading
Personal Weather Stations






























Interactive Weather Map
Tropical Storm Tracking
New forecast layout! Learn more

10-Day Weather Forecast

Advertisements
Track Severe Weather on mobile